sensor_id;sensor_type;location;lat;lon;timestamp;P1;durP1;ratioP1;P2;durP2;ratioP2
56455;SDS011;42354;53.218;6.564;2022-12-05T00:00:29;41.10;;;19.30;;
56455;SDS011;42354;53.218;6.564;2022-12-05T00:02:55;43.13;;;20.00;;
56455;SDS011;42354;53.218;6.564;2022-12-05T00:05:21;40.72;;;19.63;;
56455;SDS011;42354;53.218;6.564;2022-12-05T00:07:46;38.95;;;18.77;;
56455;SDS011;42354;53.218;6.564;2022-12-05T00:10:12;40.42;;;19.90;;
56455;SDS011;42354;53.218;6.564;2022-12-05T00:12:37;42.20;;;20.00;;
56455;SDS011;42354;53.218;6.564;2022-12-05T00:15:03;44.22;;;18.55;;
56455;SDS011;42354;53.218;6.564;2022-12-05T00:17:30;40.03;;;19.77;;
56455;SDS011;42354;53.218;6.564;2022-12-05T00:19:56;39.80;;;19.55;;
56455;SDS011;42354;53.218;6.564;2022-12-05T00:22:21;41.70;;;19.15;;
56455;SDS011;42354;53.218;6.564;2022-12-05T00:24:46;42.83;;;20.77;;
56455;SDS011;42354;53.218;6.564;2022-12-05T00:27:12;45.25;;;21.13;;
56455;SDS011;42354;53.218;6.564;2022-12-05T00:29:37;46.00;;;21.70;;
56455;SDS011;42354;53.218;6.564;2022-12-05T00:32:02;47.13;;;21.65;;
56455;SDS011;42354;53.218;6.564;2022-12-05T00:34:28;48.30;;;22.05;;
56455;SDS011;42354;53.218;6.564;2022-12-05T00:36:53;45.85;;;21.98;;
56455;SDS011;42354;53.218;6.564;2022-12-05T00:39:18;43.53;;;20.15;;
56455;SDS011;42354;53.218;6.564;2022-12-05T00:41:43;52.70;;;22.85;;
56455;SDS011;42354;53.218;6.564;2022-12-05T00:44:09;45.78;;;21.42;;
56455;SDS011;42354;53.218;6.564;2022-12-05T00:46:36;50.13;;;22.52;;
56455;SDS011;42354;53.218;6.564;2022-12-05T00:49:03;50.95;;;23.42;;
56455;SDS011;42354;53.218;6.564;2022-12-05T00:51:31;49.95;;;22.92;;
56455;SDS011;42354;53.218;6.564;2022-12-05T00:53:59;51.45;;;23.83;;
56455;SDS011;42354;53.218;6.564;2022-12-05T00:56:26;45.50;;;22.73;;
56455;SDS011;42354;53.218;6.564;2022-12-05T00:58:54;48.60;;;23.08;;
56455;SDS011;42354;53.218;6.564;2022-12-05T01:01:25;49.40;;;23.35;;
56455;SDS011;42354;53.218;6.564;2022-12-05T01:03:54;46.10;;;21.67;;
56455;SDS011;42354;53.218;6.564;2022-12-05T01:06:21;49.42;;;23.00;;
56455;SDS011;42354;53.218;6.564;2022-12-05T01:08:48;52.58;;;22.88;;
56455;SDS011;42354;53.218;6.564;2022-12-05T01:11:14;51.92;;;22.40;;
56455;SDS011;42354;53.218;6.564;2022-12-05T01:13:42;50.30;;;22.75;;
56455;SDS011;42354;53.218;6.564;2022-12-05T01:16:15;46.10;;;21.98;;
56455;SDS011;42354;53.218;6.564;2022-12-05T01:18:42;45.70;;;20.45;;
56455;SDS011;42354;53.218;6.564;2022-12-05T01:21:07;50.03;;;20.17;;
56455;SDS011;42354;53.218;6.564;2022-12-05T01:23:33;44.47;;;19.05;;
56455;SDS011;42354;53.218;6.564;2022-12-05T01:25:58;35.70;;;17.88;;
56455;SDS011;42354;53.218;6.564;2022-12-05T01:28:24;40.10;;;18.50;;
56455;SDS011;42354;53.218;6.564;2022-12-05T01:30:49;35.60;;;18.10;;
56455;SDS011;42354;53.218;6.564;2022-12-05T01:33:15;38.00;;;17.63;;
56455;SDS011;42354;53.218;6.564;2022-12-05T01:35:42;31.98;;;15.95;;
56455;SDS011;42354;53.218;6.564;2022-12-05T01:38:08;34.92;;;16.73;;
56455;SDS011;42354;53.218;6.564;2022-12-05T01:40:35;36.00;;;16.40;;
56455;SDS011;42354;53.218;6.564;2022-12-05T01:43:01;32.90;;;17.63;;
56455;SDS011;42354;53.218;6.564;2022-12-05T01:45:31;31.25;;;16.13;;
56455;SDS011;42354;53.218;6.564;2022-12-05T01:48:01;31.80;;;15.00;;
56455;SDS011;42354;53.218;6.564;2022-12-05T01:50:32;27.38;;;14.63;;
56455;SDS011;42354;53.218;6.564;2022-12-05T01:52:59;29.77;;;14.93;;
56455;SDS011;42354;53.218;6.564;2022-12-05T01:55:26;29.35;;;14.02;;
56455;SDS011;42354;53.218;6.564;2022-12-05T01:57:52;23.90;;;13.20;;
56455;SDS011;42354;53.218;6.564;2022-12-05T02:00:18;29.40;;;13.85;;
56455;SDS011;42354;53.218;6.564;2022-12-05T02:02:49;28.13;;;14.27;;
56455;SDS011;42354;53.218;6.564;2022-12-05T02:05:20;24.05;;;12.98;;
56455;SDS011;42354;53.218;6.564;2022-12-05T02:07:47;26.92;;;13.45;;
56455;SDS011;42354;53.218;6.564;2022-12-05T02:10:13;23.15;;;12.90;;
56455;SDS011;42354;53.218;6.564;2022-12-05T02:12:39;25.67;;;13.13;;
56455;SDS011;42354;53.218;6.564;2022-12-05T02:18:08;26.00;;;12.52;;
56455;SDS011;42354;53.218;6.564;2022-12-05T02:28:54;23.77;;;12.73;;
56455;SDS011;42354;53.218;6.564;2022-12-05T02:31:29;22.00;;;11.60;;
56455;SDS011;42354;53.218;6.564;2022-12-05T02:37:03;24.85;;;12.10;;
56455;SDS011;42354;53.218;6.564;2022-12-05T02:44:37;23.02;;;11.50;;
56455;SDS011;42354;53.218;6.564;2022-12-05T02:47:07;23.02;;;11.52;;
56455;SDS011;42354;53.218;6.564;2022-12-05T02:49:35;21.58;;;11.20;;
56455;SDS011;42354;53.218;6.564;2022-12-05T02:52:02;20.90;;;10.27;;
56455;SDS011;42354;53.218;6.564;2022-12-05T02:54:32;18.23;;;10.38;;
56455;SDS011;42354;53.218;6.564;2022-12-05T02:57:02;21.95;;;10.85;;
56455;SDS011;42354;53.218;6.564;2022-12-05T02:59:28;18.75;;;10.00;;
56455;SDS011;42354;53.218;6.564;2022-12-05T03:01:54;20.80;;;10.35;;
56455;SDS011;42354;53.218;6.564;2022-12-05T03:04:20;20.95;;;11.13;;
56455;SDS011;42354;53.218;6.564;2022-12-05T03:06:50;19.48;;;9.68;;
56455;SDS011;42354;53.218;6.564;2022-12-05T03:11:51;19.38;;;9.88;;
56455;SDS011;42354;53.218;6.564;2022-12-05T03:14:41;19.33;;;10.00;;
56455;SDS011;42354;53.218;6.564;2022-12-05T03:17:14;20.90;;;10.18;;
56455;SDS011;42354;53.218;6.564;2022-12-05T03:19:52;20.63;;;10.32;;
56455;SDS011;42354;53.218;6.564;2022-12-05T03:22:22;19.58;;;9.68;;
56455;SDS011;42354;53.218;6.564;2022-12-05T03:24:56;20.80;;;10.32;;
56455;SDS011;42354;53.218;6.564;2022-12-05T03:27:36;20.85;;;10.13;;
56455;SDS011;42354;53.218;6.564;2022-12-05T03:30:11;18.17;;;9.57;;
56455;SDS011;42354;53.218;6.564;2022-12-05T03:32:41;19.13;;;10.23;;
56455;SDS011;42354;53.218;6.564;2022-12-05T03:35:28;21.00;;;10.38;;
56455;SDS011;42354;53.218;6.564;2022-12-05T03:41:15;18.58;;;9.75;;
56455;SDS011;42354;53.218;6.564;2022-12-05T03:46:36;18.25;;;10.13;;
56455;SDS011;42354;53.218;6.564;2022-12-05T03:49:20;20.40;;;10.50;;
56455;SDS011;42354;53.218;6.564;2022-12-05T03:51:52;19.88;;;10.52;;
56455;SDS011;42354;53.218;6.564;2022-12-05T03:54:31;24.27;;;11.60;;
56455;SDS011;42354;53.218;6.564;2022-12-05T03:57:02;24.00;;;10.90;;
56455;SDS011;42354;53.218;6.564;2022-12-05T04:02:27;23.35;;;11.18;;
56455;SDS011;42354;53.218;6.564;2022-12-05T04:05:01;26.67;;;11.88;;
56455;SDS011;42354;53.218;6.564;2022-12-05T04:07:30;22.30;;;11.25;;
56455;SDS011;42354;53.218;6.564;2022-12-05T04:10:01;26.88;;;13.05;;
56455;SDS011;42354;53.218;6.564;2022-12-05T04:12:31;33.38;;;12.60;;
56455;SDS011;42354;53.218;6.564;2022-12-05T04:15:01;28.48;;;12.45;;
56455;SDS011;42354;53.218;6.564;2022-12-05T04:20:03;28.30;;;11.85;;
56455;SDS011;42354;53.218;6.564;2022-12-05T04:23:06;25.88;;;11.50;;
56455;SDS011;42354;53.218;6.564;2022-12-05T04:25:38;28.10;;;11.38;;
56455;SDS011;42354;53.218;6.564;2022-12-05T04:31:11;26.75;;;11.98;;
56455;SDS011;42354;53.218;6.564;2022-12-05T04:33:50;29.52;;;11.82;;
56455;SDS011;42354;53.218;6.564;2022-12-05T04:36:21;25.15;;;11.40;;
56455;SDS011;42354;53.218;6.564;2022-12-05T04:41:24;23.30;;;10.60;;
56455;SDS011;42354;53.218;6.564;2022-12-05T04:43:53;23.38;;;11.18;;
56455;SDS011;42354;53.218;6.564;2022-12-05T04:46:23;22.92;;;10.80;;
56455;SDS011;42354;53.218;6.564;2022-12-05T04:48:50;23.08;;;10.38;;
56455;SDS011;42354;53.218;6.564;2022-12-05T04:51:20;23.58;;;11.20;;
56455;SDS011;42354;53.218;6.564;2022-12-05T04:53:48;23.83;;;10.77;;
56455;SDS011;42354;53.218;6.564;2022-12-05T04:56:18;28.33;;;10.75;;
56455;SDS011;42354;53.218;6.564;2022-12-05T04:58:46;20.58;;;10.93;;
56455;SDS011;42354;53.218;6.564;2022-12-05T05:01:13;24.60;;;10.48;;
56455;SDS011;42354;53.218;6.564;2022-12-05T05:03:57;23.40;;;10.40;;
56455;SDS011;42354;53.218;6.564;2022-12-05T05:06:26;23.92;;;10.45;;
56455;SDS011;42354;53.218;6.564;2022-12-05T05:08:53;25.40;;;11.57;;
56455;SDS011;42354;53.218;6.564;2022-12-05T05:13:50;21.83;;;10.40;;
56455;SDS011;42354;53.218;6.564;2022-12-05T05:16:20;21.13;;;10.43;;
56455;SDS011;42354;53.218;6.564;2022-12-05T05:18:48;26.88;;;10.27;;
56455;SDS011;42354;53.218;6.564;2022-12-05T05:21:19;25.25;;;11.40;;
56455;SDS011;42354;53.218;6.564;2022-12-05T05:23:47;20.83;;;10.70;;
56455;SDS011;42354;53.218;6.564;2022-12-05T05:26:13;24.02;;;10.65;;
56455;SDS011;42354;53.218;6.564;2022-12-05T05:28:39;22.48;;;10.27;;
56455;SDS011;42354;53.218;6.564;2022-12-05T05:31:04;20.98;;;9.93;;
56455;SDS011;42354;53.218;6.564;2022-12-05T05:33:31;22.10;;;10.55;;
56455;SDS011;42354;53.218;6.564;2022-12-05T05:36:00;21.42;;;10.07;;
56455;SDS011;42354;53.218;6.564;2022-12-05T05:38:39;20.45;;;10.15;;
56455;SDS011;42354;53.218;6.564;2022-12-05T05:41:20;21.17;;;10.50;;
56455;SDS011;42354;53.218;6.564;2022-12-05T05:43:47;22.63;;;10.48;;
56455;SDS011;42354;53.218;6.564;2022-12-05T05:46:13;22.35;;;10.57;;
56455;SDS011;42354;53.218;6.564;2022-12-05T05:48:42;24.52;;;10.75;;
56455;SDS011;42354;53.218;6.564;2022-12-05T05:51:09;25.00;;;11.10;;
56455;SDS011;42354;53.218;6.564;2022-12-05T05:53:35;20.77;;;9.60;;
56455;SDS011;42354;53.218;6.564;2022-12-05T05:56:02;22.20;;;10.68;;
56455;SDS011;42354;53.218;6.564;2022-12-05T05:58:32;26.83;;;10.75;;
56455;SDS011;42354;53.218;6.564;2022-12-05T06:01:04;25.48;;;10.15;;
56455;SDS011;42354;53.218;6.564;2022-12-05T06:03:37;27.10;;;10.85;;
56455;SDS011;42354;53.218;6.564;2022-12-05T06:06:04;24.00;;;11.45;;
56455;SDS011;42354;53.218;6.564;2022-12-05T06:08:32;22.48;;;10.65;;
56455;SDS011;42354;53.218;6.564;2022-12-05T06:10:59;22.98;;;9.88;;
56455;SDS011;42354;53.218;6.564;2022-12-05T06:13:28;21.98;;;10.32;;
56455;SDS011;42354;53.218;6.564;2022-12-05T06:15:54;23.85;;;9.88;;
56455;SDS011;42354;53.218;6.564;2022-12-05T06:18:19;23.00;;;9.55;;
56455;SDS011;42354;53.218;6.564;2022-12-05T06:20:54;22.23;;;9.70;;
56455;SDS011;42354;53.218;6.564;2022-12-05T06:23:21;24.42;;;10.32;;
56455;SDS011;42354;53.218;6.564;2022-12-05T06:25:50;20.73;;;9.77;;
56455;SDS011;42354;53.218;6.564;2022-12-05T06:28:17;23.25;;;10.95;;
56455;SDS011;42354;53.218;6.564;2022-12-05T06:30:43;24.52;;;10.80;;
56455;SDS011;42354;53.218;6.564;2022-12-05T06:33:09;23.00;;;10.00;;
56455;SDS011;42354;53.218;6.564;2022-12-05T06:35:35;22.75;;;10.57;;
56455;SDS011;42354;53.218;6.564;2022-12-05T06:38:00;20.73;;;9.43;;
56455;SDS011;42354;53.218;6.564;2022-12-05T06:40:26;24.02;;;10.63;;
56455;SDS011;42354;53.218;6.564;2022-12-05T06:42:51;24.75;;;10.35;;
56455;SDS011;42354;53.218;6.564;2022-12-05T06:45:17;26.40;;;9.98;;
56455;SDS011;42354;53.218;6.564;2022-12-05T06:47:42;25.48;;;10.90;;
56455;SDS011;42354;53.218;6.564;2022-12-05T06:50:08;25.55;;;10.50;;
56455;SDS011;42354;53.218;6.564;2022-12-05T06:52:33;29.42;;;11.13;;
56455;SDS011;42354;53.218;6.564;2022-12-05T06:54:59;26.73;;;10.32;;
56455;SDS011;42354;53.218;6.564;2022-12-05T06:57:24;25.48;;;11.35;;
56455;SDS011;42354;53.218;6.564;2022-12-05T06:59:52;31.50;;;11.27;;
56455;SDS011;42354;53.218;6.564;2022-12-05T07:02:37;25.35;;;11.80;;
56455;SDS011;42354;53.218;6.564;2022-12-05T07:05:02;29.58;;;11.48;;
56455;SDS011;42354;53.218;6.564;2022-12-05T07:07:28;24.67;;;10.90;;
56455;SDS011;42354;53.218;6.564;2022-12-05T07:09:53;31.80;;;11.07;;
56455;SDS011;42354;53.218;6.564;2022-12-05T07:12:19;29.38;;;11.77;;
56455;SDS011;42354;53.218;6.564;2022-12-05T07:14:44;25.85;;;11.20;;
56455;SDS011;42354;53.218;6.564;2022-12-05T07:17:11;31.30;;;11.57;;
56455;SDS011;42354;53.218;6.564;2022-12-05T07:19:36;26.83;;;11.63;;
56455;SDS011;42354;53.218;6.564;2022-12-05T07:22:02;23.70;;;10.00;;
56455;SDS011;42354;53.218;6.564;2022-12-05T07:24:28;21.17;;;10.27;;
56455;SDS011;42354;53.218;6.564;2022-12-05T07:26:53;29.35;;;10.88;;
56455;SDS011;42354;53.218;6.564;2022-12-05T07:29:18;26.98;;;10.45;;
56455;SDS011;42354;53.218;6.564;2022-12-05T07:31:44;26.17;;;10.43;;
56455;SDS011;42354;53.218;6.564;2022-12-05T07:34:09;30.17;;;11.90;;
56455;SDS011;42354;53.218;6.564;2022-12-05T07:36:35;29.52;;;10.63;;
56455;SDS011;42354;53.218;6.564;2022-12-05T07:39:00;26.83;;;11.25;;
56455;SDS011;42354;53.218;6.564;2022-12-05T07:41:26;28.13;;;10.93;;
56455;SDS011;42354;53.218;6.564;2022-12-05T07:43:54;26.25;;;10.18;;
56455;SDS011;42354;53.218;6.564;2022-12-05T07:46:21;22.05;;;9.93;;
56455;SDS011;42354;53.218;6.564;2022-12-05T07:48:46;23.40;;;9.73;;
56455;SDS011;42354;53.218;6.564;2022-12-05T07:51:12;23.23;;;9.93;;
56455;SDS011;42354;53.218;6.564;2022-12-05T07:53:38;24.88;;;10.27;;
56455;SDS011;42354;53.218;6.564;2022-12-05T07:56:06;32.38;;;10.77;;
56455;SDS011;42354;53.218;6.564;2022-12-05T07:58:33;22.35;;;10.82;;
56455;SDS011;42354;53.218;6.564;2022-12-05T08:01:06;21.50;;;9.43;;
56455;SDS011;42354;53.218;6.564;2022-12-05T08:03:33;24.52;;;9.55;;
56455;SDS011;42354;53.218;6.564;2022-12-05T08:06:03;22.40;;;9.10;;
56455;SDS011;42354;53.218;6.564;2022-12-05T08:08:36;25.98;;;10.13;;
56455;SDS011;42354;53.218;6.564;2022-12-05T08:11:06;26.85;;;9.93;;
56455;SDS011;42354;53.218;6.564;2022-12-05T08:13:33;27.42;;;8.80;;
56455;SDS011;42354;53.218;6.564;2022-12-05T08:16:02;27.05;;;9.20;;
56455;SDS011;42354;53.218;6.564;2022-12-05T08:18:28;21.48;;;8.65;;
56455;SDS011;42354;53.218;6.564;2022-12-05T08:20:54;28.42;;;10.23;;
56455;SDS011;42354;53.218;6.564;2022-12-05T08:23:19;24.13;;;9.68;;
56455;SDS011;42354;53.218;6.564;2022-12-05T08:25:44;23.95;;;10.43;;
56455;SDS011;42354;53.218;6.564;2022-12-05T08:28:10;20.55;;;8.55;;
56455;SDS011;42354;53.218;6.564;2022-12-05T08:30:35;26.48;;;9.32;;
56455;SDS011;42354;53.218;6.564;2022-12-05T08:33:00;21.15;;;9.38;;
56455;SDS011;42354;53.218;6.564;2022-12-05T08:35:26;22.98;;;9.40;;
56455;SDS011;42354;53.218;6.564;2022-12-05T08:37:51;27.88;;;9.02;;
56455;SDS011;42354;53.218;6.564;2022-12-05T08:40:17;26.25;;;9.75;;
56455;SDS011;42354;53.218;6.564;2022-12-05T08:42:42;24.15;;;10.43;;
56455;SDS011;42354;53.218;6.564;2022-12-05T08:45:07;24.15;;;9.82;;
56455;SDS011;42354;53.218;6.564;2022-12-05T08:47:33;23.05;;;10.07;;
56455;SDS011;42354;53.218;6.564;2022-12-05T08:49:58;23.07;;;9.47;;
56455;SDS011;42354;53.218;6.564;2022-12-05T08:52:24;22.52;;;9.63;;
56455;SDS011;42354;53.218;6.564;2022-12-05T08:54:49;26.15;;;10.43;;
56455;SDS011;42354;53.218;6.564;2022-12-05T08:57:14;25.10;;;9.93;;
56455;SDS011;42354;53.218;6.564;2022-12-05T08:59:40;19.67;;;9.23;;
56455;SDS011;42354;53.218;6.564;2022-12-05T09:02:05;24.70;;;10.32;;
56455;SDS011;42354;53.218;6.564;2022-12-05T09:04:32;20.17;;;9.50;;
56455;SDS011;42354;53.218;6.564;2022-12-05T09:07:00;23.48;;;9.73;;
56455;SDS011;42354;53.218;6.564;2022-12-05T09:09:26;24.67;;;9.85;;
56455;SDS011;42354;53.218;6.564;2022-12-05T09:11:51;23.80;;;10.43;;
56455;SDS011;42354;53.218;6.564;2022-12-05T09:14:17;21.30;;;10.02;;
56455;SDS011;42354;53.218;6.564;2022-12-05T09:16:42;29.48;;;10.50;;
56455;SDS011;42354;53.218;6.564;2022-12-05T09:19:11;23.10;;;9.82;;
56455;SDS011;42354;53.218;6.564;2022-12-05T09:21:40;22.90;;;11.63;;
56455;SDS011;42354;53.218;6.564;2022-12-05T09:24:06;27.30;;;10.85;;
56455;SDS011;42354;53.218;6.564;2022-12-05T09:26:33;21.13;;;9.90;;
56455;SDS011;42354;53.218;6.564;2022-12-05T09:28:58;21.63;;;10.15;;
56455;SDS011;42354;53.218;6.564;2022-12-05T09:31:26;24.30;;;10.55;;
56455;SDS011;42354;53.218;6.564;2022-12-05T09:33:51;25.25;;;10.75;;
56455;SDS011;42354;53.218;6.564;2022-12-05T09:36:21;24.15;;;10.27;;
56455;SDS011;42354;53.218;6.564;2022-12-05T09:38:48;26.77;;;10.85;;
56455;SDS011;42354;53.218;6.564;2022-12-05T09:44:31;24.90;;;10.52;;
56455;SDS011;42354;53.218;6.564;2022-12-05T09:50:05;25.80;;;10.65;;
56455;SDS011;42354;53.218;6.564;2022-12-05T09:52:56;28.33;;;10.55;;
56455;SDS011;42354;53.218;6.564;2022-12-05T09:55:28;25.60;;;11.05;;
56455;SDS011;42354;53.218;6.564;2022-12-05T09:58:01;22.65;;;10.65;;
56455;SDS011;42354;53.218;6.564;2022-12-05T10:00:28;30.48;;;11.30;;
56455;SDS011;42354;53.218;6.564;2022-12-05T10:03:11;23.42;;;11.18;;
56455;SDS011;42354;53.218;6.564;2022-12-05T10:13:57;35.03;;;12.27;;
56455;SDS011;42354;53.218;6.564;2022-12-05T10:16:45;26.70;;;11.18;;
56455;SDS011;42354;53.218;6.564;2022-12-05T10:19:49;29.85;;;12.07;;
56455;SDS011;42354;53.218;6.564;2022-12-05T10:24:50;31.00;;;12.55;;
56455;SDS011;42354;53.218;6.564;2022-12-05T10:27:20;29.58;;;13.00;;
56455;SDS011;42354;53.218;6.564;2022-12-05T10:30:05;25.73;;;11.52;;
56455;SDS011;42354;53.218;6.564;2022-12-05T10:35:39;25.20;;;12.10;;
56455;SDS011;42354;53.218;6.564;2022-12-05T10:38:05;32.45;;;11.93;;
56455;SDS011;42354;53.218;6.564;2022-12-05T10:40:36;31.35;;;11.40;;
56455;SDS011;42354;53.218;6.564;2022-12-05T10:43:04;30.35;;;12.55;;
56455;SDS011;42354;53.218;6.564;2022-12-05T10:45:32;27.27;;;12.20;;
56455;SDS011;42354;53.218;6.564;2022-12-05T10:48:07;24.75;;;11.40;;
56455;SDS011;42354;53.218;6.564;2022-12-05T10:50:36;26.65;;;11.55;;
56455;SDS011;42354;53.218;6.564;2022-12-05T10:53:04;25.90;;;11.15;;
56455;SDS011;42354;53.218;6.564;2022-12-05T10:55:41;26.70;;;10.15;;
56455;SDS011;42354;53.218;6.564;2022-12-05T11:00:47;22.02;;;10.23;;
56455;SDS011;42354;53.218;6.564;2022-12-05T11:03:46;23.63;;;10.40;;
56455;SDS011;42354;53.218;6.564;2022-12-05T11:08:41;23.42;;;9.27;;
56455;SDS011;42354;53.218;6.564;2022-12-05T11:11:17;19.92;;;9.40;;
56455;SDS011;42354;53.218;6.564;2022-12-05T11:13:55;23.50;;;9.23;;
56455;SDS011;42354;53.218;6.564;2022-12-05T11:16:39;23.30;;;9.15;;
56455;SDS011;42354;53.218;6.564;2022-12-05T11:21:43;22.48;;;9.38;;
56455;SDS011;42354;53.218;6.564;2022-12-05T11:24:19;21.98;;;8.90;;
56455;SDS011;42354;53.218;6.564;2022-12-05T11:26:46;19.95;;;9.05;;
56455;SDS011;42354;53.218;6.564;2022-12-05T11:32:05;21.48;;;8.27;;
56455;SDS011;42354;53.218;6.564;2022-12-05T11:34:56;17.85;;;7.97;;
56455;SDS011;42354;53.218;6.564;2022-12-05T11:37:49;18.92;;;8.00;;
56455;SDS011;42354;53.218;6.564;2022-12-05T11:40:29;19.83;;;8.82;;
56455;SDS011;42354;53.218;6.564;2022-12-05T11:43:07;17.08;;;7.57;;
56455;SDS011;42354;53.218;6.564;2022-12-05T11:45:57;18.67;;;7.63;;
56455;SDS011;42354;53.218;6.564;2022-12-05T11:54:07;19.10;;;7.18;;
56455;SDS011;42354;53.218;6.564;2022-12-05T11:56:49;16.17;;;7.53;;
56455;SDS011;42354;53.218;6.564;2022-12-05T12:07:17;14.88;;;6.80;;
56455;SDS011;42354;53.218;6.564;2022-12-05T12:09:53;17.63;;;7.05;;
56455;SDS011;42354;53.218;6.564;2022-12-05T12:26:13;17.40;;;7.38;;
56455;SDS011;42354;53.218;6.564;2022-12-05T12:28:45;13.15;;;5.78;;
56455;SDS011;42354;53.218;6.564;2022-12-05T12:31:38;15.20;;;7.10;;
56455;SDS011;42354;53.218;6.564;2022-12-05T12:39:51;18.90;;;6.18;;
56455;SDS011;42354;53.218;6.564;2022-12-05T12:42:28;16.00;;;6.50;;
56455;SDS011;42354;53.218;6.564;2022-12-05T12:45:07;12.32;;;5.93;;
56455;SDS011;42354;53.218;6.564;2022-12-05T12:47:54;12.43;;;5.78;;
56455;SDS011;42354;53.218;6.564;2022-12-05T12:50:21;15.13;;;5.60;;
56455;SDS011;42354;53.218;6.564;2022-12-05T12:55:49;13.38;;;5.22;;
56455;SDS011;42354;53.218;6.564;2022-12-05T13:01:06;15.82;;;6.30;;
56455;SDS011;42354;53.218;6.564;2022-12-05T13:06:58;11.13;;;5.57;;
56455;SDS011;42354;53.218;6.564;2022-12-05T13:11:49;10.20;;;4.47;;
56455;SDS011;42354;53.218;6.564;2022-12-05T13:14:17;11.73;;;5.07;;
56455;SDS011;42354;53.218;6.564;2022-12-05T13:16:48;19.27;;;5.78;;
56455;SDS011;42354;53.218;6.564;2022-12-05T13:22:11;11.95;;;5.28;;
56455;SDS011;42354;53.218;6.564;2022-12-05T13:24:38;13.20;;;5.30;;
56455;SDS011;42354;53.218;6.564;2022-12-05T13:27:05;10.43;;;4.72;;
56455;SDS011;42354;53.218;6.564;2022-12-05T13:29:41;11.63;;;4.75;;
56455;SDS011;42354;53.218;6.564;2022-12-05T13:32:33;14.32;;;5.53;;
56455;SDS011;42354;53.218;6.564;2022-12-05T13:35:07;13.65;;;5.38;;
56455;SDS011;42354;53.218;6.564;2022-12-05T13:37:44;16.17;;;5.88;;
56455;SDS011;42354;53.218;6.564;2022-12-05T13:40:31;11.52;;;5.47;;
56455;SDS011;42354;53.218;6.564;2022-12-05T13:43:17;10.00;;;5.18;;
56455;SDS011;42354;53.218;6.564;2022-12-05T13:46:22;17.25;;;5.53;;
56455;SDS011;42354;53.218;6.564;2022-12-05T13:48:46;11.93;;;5.35;;
56455;SDS011;42354;53.218;6.564;2022-12-05T13:51:21;11.20;;;4.50;;
56455;SDS011;42354;53.218;6.564;2022-12-05T13:53:58;19.42;;;5.50;;
56455;SDS011;42354;53.218;6.564;2022-12-05T13:59:55;13.75;;;4.78;;
56455;SDS011;42354;53.218;6.564;2022-12-05T14:07:48;11.02;;;5.00;;
56455;SDS011;42354;53.218;6.564;2022-12-05T14:10:15;17.50;;;5.40;;
56455;SDS011;42354;53.218;6.564;2022-12-05T14:12:47;12.50;;;5.13;;
56455;SDS011;42354;53.218;6.564;2022-12-05T14:15:31;15.93;;;5.50;;
56455;SDS011;42354;53.218;6.564;2022-12-05T14:18:05;15.20;;;4.97;;
56455;SDS011;42354;53.218;6.564;2022-12-05T14:23:35;18.33;;;5.72;;
56455;SDS011;42354;53.218;6.564;2022-12-05T14:34:23;11.80;;;5.15;;
56455;SDS011;42354;53.218;6.564;2022-12-05T14:37:07;11.77;;;4.65;;
56455;SDS011;42354;53.218;6.564;2022-12-05T14:39:50;14.75;;;5.22;;
56455;SDS011;42354;53.218;6.564;2022-12-05T14:42:22;15.07;;;4.93;;
56455;SDS011;42354;53.218;6.564;2022-12-05T14:44:54;20.38;;;5.47;;
56455;SDS011;42354;53.218;6.564;2022-12-05T14:47:23;13.57;;;5.70;;
56455;SDS011;42354;53.218;6.564;2022-12-05T14:50:00;14.63;;;5.63;;
56455;SDS011;42354;53.218;6.564;2022-12-05T14:53:21;22.40;;;5.72;;
56455;SDS011;42354;53.218;6.564;2022-12-05T14:55:56;17.63;;;6.13;;
56455;SDS011;42354;53.218;6.564;2022-12-05T15:03:39;17.20;;;5.28;;
56455;SDS011;42354;53.218;6.564;2022-12-05T15:06:13;18.15;;;5.53;;
56455;SDS011;42354;53.218;6.564;2022-12-05T15:08:44;18.30;;;5.80;;
56455;SDS011;42354;53.218;6.564;2022-12-05T15:11:15;15.32;;;5.10;;
56455;SDS011;42354;53.218;6.564;2022-12-05T15:13:55;15.15;;;5.63;;
56455;SDS011;42354;53.218;6.564;2022-12-05T15:16:42;14.90;;;5.65;;
56455;SDS011;42354;53.218;6.564;2022-12-05T15:19:26;15.90;;;5.85;;
56455;SDS011;42354;53.218;6.564;2022-12-05T15:21:57;16.48;;;5.55;;
56455;SDS011;42354;53.218;6.564;2022-12-05T15:24:26;10.73;;;4.80;;
56455;SDS011;42354;53.218;6.564;2022-12-05T15:29:26;13.73;;;4.80;;
56455;SDS011;42354;53.218;6.564;2022-12-05T15:32:03;10.98;;;4.55;;
56455;SDS011;42354;53.218;6.564;2022-12-05T15:42:29;15.60;;;5.50;;
56455;SDS011;42354;53.218;6.564;2022-12-05T15:47:37;18.13;;;5.63;;
56455;SDS011;42354;53.218;6.564;2022-12-05T15:50:04;15.60;;;5.93;;
56455;SDS011;42354;53.218;6.564;2022-12-05T15:52:36;15.05;;;6.22;;
56455;SDS011;42354;53.218;6.564;2022-12-05T15:55:09;15.60;;;6.03;;
56455;SDS011;42354;53.218;6.564;2022-12-05T15:57:49;17.10;;;6.85;;
56455;SDS011;42354;53.218;6.564;2022-12-05T16:00:21;16.08;;;6.38;;
56455;SDS011;42354;53.218;6.564;2022-12-05T16:02:58;20.52;;;6.18;;
56455;SDS011;42354;53.218;6.564;2022-12-05T16:05:30;19.10;;;6.55;;
56455;SDS011;42354;53.218;6.564;2022-12-05T16:08:00;15.68;;;6.32;;
56455;SDS011;42354;53.218;6.564;2022-12-05T16:10:28;18.58;;;6.55;;
56455;SDS011;42354;53.218;6.564;2022-12-05T16:12:54;18.30;;;7.25;;
56455;SDS011;42354;53.218;6.564;2022-12-05T16:15:24;19.77;;;7.63;;
56455;SDS011;42354;53.218;6.564;2022-12-05T16:17:54;20.13;;;6.95;;
56455;SDS011;42354;53.218;6.564;2022-12-05T16:20:22;22.50;;;6.43;;
56455;SDS011;42354;53.218;6.564;2022-12-05T16:25:23;16.90;;;7.05;;
56455;SDS011;42354;53.218;6.564;2022-12-05T16:27:58;19.52;;;7.05;;
56455;SDS011;42354;53.218;6.564;2022-12-05T16:30:39;16.98;;;7.32;;
56455;SDS011;42354;53.218;6.564;2022-12-05T16:33:05;21.88;;;6.80;;
56455;SDS011;42354;53.218;6.564;2022-12-05T16:35:40;15.57;;;7.10;;
56455;SDS011;42354;53.218;6.564;2022-12-05T16:45:55;20.33;;;7.65;;
56455;SDS011;42354;53.218;6.564;2022-12-05T16:48:26;19.00;;;7.80;;
56455;SDS011;42354;53.218;6.564;2022-12-05T16:51:17;18.23;;;6.57;;
56455;SDS011;42354;53.218;6.564;2022-12-05T16:56:14;22.52;;;7.32;;
56455;SDS011;42354;53.218;6.564;2022-12-05T16:58:42;20.33;;;7.82;;
56455;SDS011;42354;53.218;6.564;2022-12-05T17:01:11;17.08;;;7.68;;
56455;SDS011;42354;53.218;6.564;2022-12-05T17:03:40;16.23;;;6.90;;
56455;SDS011;42354;53.218;6.564;2022-12-05T17:06:05;15.38;;;5.57;;
56455;SDS011;42354;53.218;6.564;2022-12-05T17:08:31;18.42;;;6.45;;
56455;SDS011;42354;53.218;6.564;2022-12-05T17:10:56;14.77;;;6.30;;
56455;SDS011;42354;53.218;6.564;2022-12-05T17:13:22;16.08;;;5.28;;
56455;SDS011;42354;53.218;6.564;2022-12-05T17:15:47;16.67;;;5.65;;
56455;SDS011;42354;53.218;6.564;2022-12-05T17:18:17;12.73;;;5.15;;
56455;SDS011;42354;53.218;6.564;2022-12-05T17:20:45;15.75;;;5.45;;
56455;SDS011;42354;53.218;6.564;2022-12-05T17:23:14;12.93;;;5.90;;
56455;SDS011;42354;53.218;6.564;2022-12-05T17:25:42;14.95;;;6.07;;
56455;SDS011;42354;53.218;6.564;2022-12-05T17:28:18;14.35;;;5.53;;
56455;SDS011;42354;53.218;6.564;2022-12-05T17:30:44;13.02;;;6.18;;
56455;SDS011;42354;53.218;6.564;2022-12-05T17:33:11;15.27;;;5.60;;
56455;SDS011;42354;53.218;6.564;2022-12-05T17:35:37;19.35;;;6.22;;